sensor_id;sensor_type;location;lat;lon;timestamp;pressure;altitude;pressure_sealevel;temperature;humidity
79347;BME280;68815;48.810;44.482;2023-04-01T00:02:20;100596;;;3.5;62.3
79347;BME280;68815;48.810;44.482;2023-04-01T00:05:22;100596;;;3.5;62.4
79347;BME280;68815;48.810;44.482;2023-04-01T00:08:24;100593;;;3.7;62.1
79347;BME280;68815;48.810;44.482;2023-04-01T00:11:25;100590;;;3.6;62.8
79347;BME280;68815;48.810;44.482;2023-04-01T00:14:27;100588;;;3.4;63.5
79347;BME280;68815;48.810;44.482;2023-04-01T00:17:29;100592;;;3.5;63.9
79347;BME280;68815;48.810;44.482;2023-04-01T00:20:30;100601;;;3.5;63.9
79347;BME280;68815;48.810;44.482;2023-04-01T00:23:32;100597;;;3.6;63.4
79347;BME280;68815;48.810;44.482;2023-04-01T00:26:33;100606;;;3.6;63.9
79347;BME280;68815;48.810;44.482;2023-04-01T00:29:35;100605;;;3.4;63.9
79347;BME280;68815;48.810;44.482;2023-04-01T00:32:36;100603;;;3.5;64
79347;BME280;68815;48.810;44.482;2023-04-01T00:35:38;100605;;;3.5;64
79347;BME280;68815;48.810;44.482;2023-04-01T00:38:41;100608;;;3.6;63.9
79347;BME280;68815;48.810;44.482;2023-04-01T00:41:43;100613;;;3.5;63.9
79347;BME280;68815;48.810;44.482;2023-04-01T00:44:46;100620;;;3.4;64.7
79347;BME280;68815;48.810;44.482;2023-04-01T00:47:48;100624;;;3.4;64.1
79347;BME280;68815;48.810;44.482;2023-04-01T00:50:52;100631;;;3.3;64.6
79347;BME280;68815;48.810;44.482;2023-04-01T00:53:57;100634;;;3.2;65.1
79347;BME280;68815;48.810;44.482;2023-04-01T00:57:01;100634;;;3;65.3
79347;BME280;68815;48.810;44.482;2023-04-01T01:00:06;100638;;;3;66
79347;BME280;68815;48.810;44.482;2023-04-01T01:03:10;100626;;;3;66.3
79347;BME280;68815;48.810;44.482;2023-04-01T01:06:16;100633;;;3;66.9
79347;BME280;68815;48.810;44.482;2023-04-01T01:09:29;100634;;;3;66.3
79347;BME280;68815;48.810;44.482;2023-04-01T01:12:37;100641;;;3.2;65.5
79347;BME280;68815;48.810;44.482;2023-04-01T01:15:45;100642;;;3.3;64.8
79347;BME280;68815;48.810;44.482;2023-04-01T01:18:51;100639;;;3.4;64.6
79347;BME280;68815;48.810;44.482;2023-04-01T01:22:04;100639;;;3.5;64.7
79347;BME280;68815;48.810;44.482;2023-04-01T01:25:16;100634;;;3.3;64.5
79347;BME280;68815;48.810;44.482;2023-04-01T01:28:32;100630;;;3.3;64.7
79347;BME280;68815;48.810;44.482;2023-04-01T01:31:44;100627;;;3.2;65.2
79347;BME280;68815;48.810;44.482;2023-04-01T01:34:54;100625;;;3.2;65
79347;BME280;68815;48.810;44.482;2023-04-01T01:38:01;100623;;;3.3;64.9
79347;BME280;68815;48.810;44.482;2023-04-01T01:41:07;100624;;;3.3;64.8
79347;BME280;68815;48.810;44.482;2023-04-01T01:44:12;100627;;;3.3;64.2
79347;BME280;68815;48.810;44.482;2023-04-01T01:47:16;100634;;;3.4;64.4
79347;BME280;68815;48.810;44.482;2023-04-01T01:50:21;100634;;;3.4;63.7
79347;BME280;68815;48.810;44.482;2023-04-01T01:53:24;100640;;;3.1;64.8
79347;BME280;68815;48.810;44.482;2023-04-01T01:56:27;100627;;;3.1;64.5
79347;BME280;68815;48.810;44.482;2023-04-01T01:59:30;100627;;;3;64.9
79347;BME280;68815;48.810;44.482;2023-04-01T02:02:34;100632;;;3;65.3
79347;BME280;68815;48.810;44.482;2023-04-01T02:05:35;100640;;;2.9;65.2
79347;BME280;68815;48.810;44.482;2023-04-01T02:08:40;100648;;;3;64.4
79347;BME280;68815;48.810;44.482;2023-04-01T02:11:45;100648;;;3;64.7
79347;BME280;68815;48.810;44.482;2023-04-01T02:14:52;100649;;;3;64.4
79347;BME280;68815;48.810;44.482;2023-04-01T02:17:57;100656;;;3;64.5
79347;BME280;68815;48.810;44.482;2023-04-01T02:20:59;100652;;;2.8;65
79347;BME280;68815;48.810;44.482;2023-04-01T02:24:04;100658;;;2.8;65.1
79347;BME280;68815;48.810;44.482;2023-04-01T02:27:08;100660;;;2.9;65
79347;BME280;68815;48.810;44.482;2023-04-01T02:30:11;100659;;;2.9;64.9
79347;BME280;68815;48.810;44.482;2023-04-01T02:33:12;100661;;;2.8;65.2
79347;BME280;68815;48.810;44.482;2023-04-01T02:36:15;100669;;;2.9;65.3
79347;BME280;68815;48.810;44.482;2023-04-01T02:39:17;100669;;;2.9;65.1
79347;BME280;68815;48.810;44.482;2023-04-01T02:42:19;100669;;;3;64.9
79347;BME280;68815;48.810;44.482;2023-04-01T02:45:21;100673;;;3;65.1
79347;BME280;68815;48.810;44.482;2023-04-01T02:48:22;100678;;;2.9;65.4
79347;BME280;68815;48.810;44.482;2023-04-01T02:51:25;100679;;;2.9;65.5
79347;BME280;68815;48.810;44.482;2023-04-01T02:54:26;100686;;;2.9;65.6
79347;BME280;68815;48.810;44.482;2023-04-01T02:57:27;100680;;;2.8;66.1
79347;BME280;68815;48.810;44.482;2023-04-01T03:00:29;100683;;;3.1;65.3
79347;BME280;68815;48.810;44.482;2023-04-01T03:03:30;100689;;;3.3;64.5
79347;BME280;68815;48.810;44.482;2023-04-01T03:06:32;100685;;;3.3;64.4
79347;BME280;68815;48.810;44.482;2023-04-01T03:09:33;100683;;;3.3;64.7
79347;BME280;68815;48.810;44.482;2023-04-01T03:12:35;100678;;;3.2;65.1
79347;BME280;68815;48.810;44.482;2023-04-01T03:15:37;100669;;;3.3;64.9
79347;BME280;68815;48.810;44.482;2023-04-01T03:18:39;100667;;;3.4;65
79347;BME280;68815;48.810;44.482;2023-04-01T03:21:40;100669;;;3.4;65.2
79347;BME280;68815;48.810;44.482;2023-04-01T03:24:41;100673;;;3.4;65.3
79347;BME280;68815;48.810;44.482;2023-04-01T03:27:42;100682;;;3.7;64.5
79347;BME280;68815;48.810;44.482;2023-04-01T03:30:44;100686;;;3.9;63.6
79347;BME280;68815;48.810;44.482;2023-04-01T03:33:45;100683;;;3.8;63.7
79347;BME280;68815;48.810;44.482;2023-04-01T03:36:46;100680;;;3.7;63.8
79347;BME280;68815;48.810;44.482;2023-04-01T03:39:48;100687;;;3.8;63.7
79347;BME280;68815;48.810;44.482;2023-04-01T03:42:49;100687;;;3.7;63.7
79347;BME280;68815;48.810;44.482;2023-04-01T03:45:52;100687;;;3.8;63.9
79347;BME280;68815;48.810;44.482;2023-04-01T03:48:54;100687;;;3.7;64.1
79347;BME280;68815;48.810;44.482;2023-04-01T03:51:55;100688;;;3.7;64.3
79347;BME280;68815;48.810;44.482;2023-04-01T03:54:57;100688;;;3.7;64.4
79347;BME280;68815;48.810;44.482;2023-04-01T03:57:59;100698;;;3.9;64
79347;BME280;68815;48.810;44.482;2023-04-01T04:01:00;100703;;;3.9;64
79347;BME280;68815;48.810;44.482;2023-04-01T04:04:02;100706;;;3.8;64.3
79347;BME280;68815;48.810;44.482;2023-04-01T04:07:03;100711;;;3.9;64.2
79347;BME280;68815;48.810;44.482;2023-04-01T04:10:06;100715;;;4.3;63.3
79347;BME280;68815;48.810;44.482;2023-04-01T04:13:07;100715;;;4.4;63.3
79347;BME280;68815;48.810;44.482;2023-04-01T04:16:09;100719;;;4.5;63.4
79347;BME280;68815;48.810;44.482;2023-04-01T04:19:11;100715;;;4.7;62.7
79347;BME280;68815;48.810;44.482;2023-04-01T04:22:13;100716;;;5.2;61.6
79347;BME280;68815;48.810;44.482;2023-04-01T04:25:15;100715;;;5.4;61.4
79347;BME280;68815;48.810;44.482;2023-04-01T04:28:16;100720;;;5.7;60.9
79347;BME280;68815;48.810;44.482;2023-04-01T04:31:18;100715;;;5.9;60.1
79347;BME280;68815;48.810;44.482;2023-04-01T04:34:20;100720;;;6.2;59.6
79347;BME280;68815;48.810;44.482;2023-04-01T04:37:21;100729;;;6.4;58.7
79347;BME280;68815;48.810;44.482;2023-04-01T04:40:23;100727;;;6.7;58.5
79347;BME280;68815;48.810;44.482;2023-04-01T04:43:24;100735;;;6.9;57.4
79347;BME280;68815;48.810;44.482;2023-04-01T04:46:26;100734;;;7.2;57
79347;BME280;68815;48.810;44.482;2023-04-01T04:49:27;100742;;;7.7;56.5
79347;BME280;68815;48.810;44.482;2023-04-01T04:52:29;100743;;;7.9;55.2
79347;BME280;68815;48.810;44.482;2023-04-01T04:55:30;100752;;;7.9;55.1
79347;BME280;68815;48.810;44.482;2023-04-01T04:58:31;100748;;;8.1;55.5
79347;BME280;68815;48.810;44.482;2023-04-01T05:01:33;100752;;;8.5;54.6
79347;BME280;68815;48.810;44.482;2023-04-01T05:04:34;100758;;;9.1;53.9
79347;BME280;68815;48.810;44.482;2023-04-01T05:07:36;100754;;;9.3;52.7
79347;BME280;68815;48.810;44.482;2023-04-01T05:10:37;100748;;;9.6;52.2
79347;BME280;68815;48.810;44.482;2023-04-01T05:13:39;100736;;;9.8;51.5
79347;BME280;68815;48.810;44.482;2023-04-01T05:16:40;100741;;;9.9;51
79347;BME280;68815;48.810;44.482;2023-04-01T05:19:42;100744;;;9.9;51
79347;BME280;68815;48.810;44.482;2023-04-01T05:22:44;100741;;;10.4;50.4
79347;BME280;68815;48.810;44.482;2023-04-01T05:25:45;100741;;;10.8;49.3
79347;BME280;68815;48.810;44.482;2023-04-01T05:28:47;100752;;;10.5;49.4
79347;BME280;68815;48.810;44.482;2023-04-01T05:31:48;100767;;;10.4;49.4
79347;BME280;68815;48.810;44.482;2023-04-01T05:34:50;100764;;;10.5;49.4
79347;BME280;68815;48.810;44.482;2023-04-01T05:37:51;100762;;;10.9;48.8
79347;BME280;68815;48.810;44.482;2023-04-01T05:40:58;100757;;;11;48.5
79347;BME280;68815;48.810;44.482;2023-04-01T05:44:00;100758;;;11.6;47
79347;BME280;68815;48.810;44.482;2023-04-01T05:47:01;100761;;;11.2;47.9
79347;BME280;68815;48.810;44.482;2023-04-01T05:50:03;100780;;;11.7;47.2
79347;BME280;68815;48.810;44.482;2023-04-01T05:53:05;100783;;;12.1;45.8
79347;BME280;68815;48.810;44.482;2023-04-01T05:56:06;100774;;;12.2;45.7
79347;BME280;68815;48.810;44.482;2023-04-01T05:59:10;100771;;;12.4;45.3
79347;BME280;68815;48.810;44.482;2023-04-01T06:02:11;100768;;;12.4;45.2
79347;BME280;68815;48.810;44.482;2023-04-01T06:05:17;100766;;;12.8;44.1
79347;BME280;68815;48.810;44.482;2023-04-01T06:08:19;100759;;;12.9;43.6
79347;BME280;68815;48.810;44.482;2023-04-01T06:11:27;100759;;;13.2;43.2
79347;BME280;68815;48.810;44.482;2023-04-01T06:14:38;100758;;;13.8;42.9
79347;BME280;68815;48.810;44.482;2023-04-01T06:17:53;100758;;;14.2;41.8
79347;BME280;68815;48.810;44.482;2023-04-01T06:21:04;100769;;;14.7;40.2
79347;BME280;68815;48.810;44.482;2023-04-01T06:24:15;100767;;;14.9;39.4
79347;BME280;68815;48.810;44.482;2023-04-01T06:27:27;100761;;;15.2;38.8
79347;BME280;68815;48.810;44.482;2023-04-01T06:30:38;100754;;;15.9;38
79347;BME280;68815;48.810;44.482;2023-04-01T06:33:51;100741;;;16.2;36.6
79347;BME280;68815;48.810;44.482;2023-04-01T06:37:10;100751;;;16.1;36.9
79347;BME280;68815;48.810;44.482;2023-04-01T06:40:36;100764;;;15.7;37.7
79347;BME280;68815;48.810;44.482;2023-04-01T06:43:48;100776;;;15.1;39.3
79347;BME280;68815;48.810;44.482;2023-04-01T06:46:57;100768;;;15.4;38.1
79347;BME280;68815;48.810;44.482;2023-04-01T06:50:04;100753;;;15.1;38.3
79347;BME280;68815;48.810;44.482;2023-04-01T06:53:12;100738;;;15.1;37.7
79347;BME280;68815;48.810;44.482;2023-04-01T06:56:21;100739;;;15.5;37.6
79347;BME280;68815;48.810;44.482;2023-04-01T06:59:28;100742;;;16.1;38.6
79347;BME280;68815;48.810;44.482;2023-04-01T07:02:36;100741;;;16.2;37.5
79347;BME280;68815;48.810;44.482;2023-04-01T07:05:40;100726;;;16;37.6
79347;BME280;68815;48.810;44.482;2023-04-01T07:08:43;100726;;;15.8;36.6
79347;BME280;68815;48.810;44.482;2023-04-01T07:11:48;100729;;;15.4;36.8
79347;BME280;68815;48.810;44.482;2023-04-01T07:14:58;100729;;;15.1;36.9
79347;BME280;68815;48.810;44.482;2023-04-01T07:18:07;100717;;;15;36.6
79347;BME280;68815;48.810;44.482;2023-04-01T07:21:19;100715;;;15.2;36.2
79347;BME280;68815;48.810;44.482;2023-04-01T07:24:26;100727;;;15.2;34.9
79347;BME280;68815;48.810;44.482;2023-04-01T07:27:30;100718;;;15.2;35.1
79347;BME280;68815;48.810;44.482;2023-04-01T07:30:51;100713;;;15.2;34.5
79347;BME280;68815;48.810;44.482;2023-04-01T07:34:01;100718;;;15.1;35.4
79347;BME280;68815;48.810;44.482;2023-04-01T07:37:12;100721;;;15.5;34.9
79347;BME280;68815;48.810;44.482;2023-04-01T07:40:26;100711;;;15.2;33.7
79347;BME280;68815;48.810;44.482;2023-04-01T07:43:41;100722;;;14.9;34.2
79347;BME280;68815;48.810;44.482;2023-04-01T07:47:04;100720;;;14.6;32.6
79347;BME280;68815;48.810;44.482;2023-04-01T07:50:14;100728;;;14.4;32.6
79347;BME280;68815;48.810;44.482;2023-04-01T07:53:27;100721;;;14.3;33.2
79347;BME280;68815;48.810;44.482;2023-04-01T07:56:38;100717;;;14.2;32.5
79347;BME280;68815;48.810;44.482;2023-04-01T07:59:49;100722;;;14.2;32.6
79347;BME280;68815;48.810;44.482;2023-04-01T08:03:17;100716;;;13.9;32.4
79347;BME280;68815;48.810;44.482;2023-04-01T08:06:25;100721;;;15.8;39.3
79347;BME280;68815;48.810;44.482;2023-04-01T08:09:34;100715;;;15.8;34.9
79347;BME280;68815;48.810;44.482;2023-04-01T08:12:48;100707;;;16.4;31.7
79347;BME280;68815;48.810;44.482;2023-04-01T08:15:56;100713;;;15.8;32.6
79347;BME280;68815;48.810;44.482;2023-04-01T08:19:13;100700;;;15.9;35.2
79347;BME280;68815;48.810;44.482;2023-04-01T08:22:19;100695;;;15.5;33.1
79347;BME280;68815;48.810;44.482;2023-04-01T08:25:27;100696;;;16.2;34.9
79347;BME280;68815;48.810;44.482;2023-04-01T08:28:32;100682;;;16.8;32.8
79347;BME280;68815;48.810;44.482;2023-04-01T08:31:37;100697;;;16;31.4
79347;BME280;68815;48.810;44.482;2023-04-01T08:34:46;100693;;;15.3;34.9
79347;BME280;68815;48.810;44.482;2023-04-01T08:37:50;100700;;;15.4;34
79347;BME280;68815;48.810;44.482;2023-04-01T08:40:57;100701;;;15.5;34.8
79347;BME280;68815;48.810;44.482;2023-04-01T08:44:19;100704;;;15.6;33.6
79347;BME280;68815;48.810;44.482;2023-04-01T08:47:38;100709;;;15.4;32.3
79347;BME280;68815;48.810;44.482;2023-04-01T08:50:55;100711;;;15.2;33
79347;BME280;68815;48.810;44.482;2023-04-01T08:54:09;100716;;;15;31.4
79347;BME280;68815;48.810;44.482;2023-04-01T08:57:21;100723;;;15.7;31.4
79347;BME280;68815;48.810;44.482;2023-04-01T09:00:30;100723;;;15.1;32.5
79347;BME280;68815;48.810;44.482;2023-04-01T09:03:38;100732;;;15;36
79347;BME280;68815;48.810;44.482;2023-04-01T09:06:51;100737;;;14.6;35.8
79347;BME280;68815;48.810;44.482;2023-04-01T09:10:11;100743;;;14.5;35.5
79347;BME280;68815;48.810;44.482;2023-04-01T09:13:27;100735;;;14.8;33.8
79347;BME280;68815;48.810;44.482;2023-04-01T09:16:43;100732;;;14.9;36.1
79347;BME280;68815;48.810;44.482;2023-04-01T09:19:52;100740;;;15;33.2
79347;BME280;68815;48.810;44.482;2023-04-01T09:23:13;100748;;;15.2;35.2
79347;BME280;68815;48.810;44.482;2023-04-01T09:26:30;100745;;;14.9;32.7
79347;BME280;68815;48.810;44.482;2023-04-01T09:30:02;100748;;;14.4;33.7
79347;BME280;68815;48.810;44.482;2023-04-01T09:33:19;100752;;;14.1;35.2
79347;BME280;68815;48.810;44.482;2023-04-01T09:36:35;100753;;;14.1;34.6
79347;BME280;68815;48.810;44.482;2023-04-01T09:39:42;100755;;;14.1;33.4
79347;BME280;68815;48.810;44.482;2023-04-01T09:43:02;100759;;;14.3;33.6
79347;BME280;68815;48.810;44.482;2023-04-01T09:46:15;100752;;;14.2;33.6
79347;BME280;68815;48.810;44.482;2023-04-01T09:49:32;100752;;;14.2;32.5
79347;BME280;68815;48.810;44.482;2023-04-01T09:52:45;100744;;;14.2;34.7
79347;BME280;68815;48.810;44.482;2023-04-01T09:56:03;100738;;;14.3;33.7
79347;BME280;68815;48.810;44.482;2023-04-01T10:06:28;100731;;;15.3;34.8
79347;BME280;68815;48.810;44.482;2023-04-01T10:16:47;100722;;;14.9;33.7
79347;BME280;68815;48.810;44.482;2023-04-01T10:20:02;100729;;;14.5;35
79347;BME280;68815;48.810;44.482;2023-04-01T10:23:32;100718;;;14.1;34.1
79347;BME280;68815;48.810;44.482;2023-04-01T10:26:47;100712;;;14;34.4
79347;BME280;68815;48.810;44.482;2023-04-01T10:30:05;100711;;;14;34.1
79347;BME280;68815;48.810;44.482;2023-04-01T10:33:25;100713;;;13.8;34.2
79347;BME280;68815;48.810;44.482;2023-04-01T10:36:41;100706;;;13.6;34.7
79347;BME280;68815;48.810;44.482;2023-04-01T10:43:26;100705;;;13.8;34.6
79347;BME280;68815;48.810;44.482;2023-04-01T10:46:56;100699;;;13.9;35.2
79347;BME280;68815;48.810;44.482;2023-04-01T10:50:24;100683;;;15.1;33.3
79347;BME280;68815;48.810;44.482;2023-04-01T10:53:32;100685;;;14.9;32.2
79347;BME280;68815;48.810;44.482;2023-04-01T10:56:40;100690;;;15.1;36.3
79347;BME280;68815;48.810;44.482;2023-04-01T10:59:57;100688;;;14.8;32.1
79347;BME280;68815;48.810;44.482;2023-04-01T11:06:46;100685;;;13.9;32.9
79347;BME280;68815;48.810;44.482;2023-04-01T11:10:22;100678;;;13.8;32.5
79347;BME280;68815;48.810;44.482;2023-04-01T11:13:45;100689;;;13.5;33
79347;BME280;68815;48.810;44.482;2023-04-01T11:17:08;100686;;;13.4;32.9
79347;BME280;68815;48.810;44.482;2023-04-01T11:20:28;100682;;;13.2;34.1
79347;BME280;68815;48.810;44.482;2023-04-01T11:23:44;100678;;;13.4;35.2
79347;BME280;68815;48.810;44.482;2023-04-01T11:27:01;100681;;;13.7;33.5
79347;BME280;68815;48.810;44.482;2023-04-01T11:30:13;100667;;;14.4;32.1
79347;BME280;68815;48.810;44.482;2023-04-01T11:33:22;100669;;;14.3;35.2
79347;BME280;68815;48.810;44.482;2023-04-01T11:36:32;100672;;;14.6;33.3
79347;BME280;68815;48.810;44.482;2023-04-01T11:39:44;100671;;;16;38.2
79347;BME280;68815;48.810;44.482;2023-04-01T11:42:55;100672;;;15.6;31
79347;BME280;68815;48.810;44.482;2023-04-01T11:46:06;100664;;;14.8;32.7
79347;BME280;68815;48.810;44.482;2023-04-01T11:49:21;100667;;;14.4;33.5
79347;BME280;68815;48.810;44.482;2023-04-01T11:52:34;100676;;;14.2;36.1
79347;BME280;68815;48.810;44.482;2023-04-01T11:55:46;100657;;;14.2;33.2
79347;BME280;68815;48.810;44.482;2023-04-01T11:59:13;100670;;;14;32.7
79347;BME280;68815;48.810;44.482;2023-04-01T12:02:28;100662;;;13.9;33.4
79347;BME280;68815;48.810;44.482;2023-04-01T12:05:42;100657;;;13.9;34.3
79347;BME280;68815;48.810;44.482;2023-04-01T12:08:51;100656;;;13.8;32.5
79347;BME280;68815;48.810;44.482;2023-04-01T12:12:03;100649;;;13.9;32.6
79347;BME280;68815;48.810;44.482;2023-04-01T12:15:20;100647;;;13.8;32.7
79347;BME280;68815;48.810;44.482;2023-04-01T12:18:28;100643;;;13.7;32.6
79347;BME280;68815;48.810;44.482;2023-04-01T12:21:36;100636;;;13.6;33.6
79347;BME280;68815;48.810;44.482;2023-04-01T12:24:44;100641;;;13.7;34.2
79347;BME280;68815;48.810;44.482;2023-04-01T12:27:53;100638;;;13.6;35.9
79347;BME280;68815;48.810;44.482;2023-04-01T12:31:06;100636;;;13.5;34.1
79347;BME280;68815;48.810;44.482;2023-04-01T12:34:24;100630;;;13.6;34.6
79347;BME280;68815;48.810;44.482;2023-04-01T12:37:36;100628;;;13.6;34
79347;BME280;68815;48.810;44.482;2023-04-01T12:40:49;100634;;;13.5;34.3
79347;BME280;68815;48.810;44.482;2023-04-01T12:44:02;100634;;;13.4;36
79347;BME280;68815;48.810;44.482;2023-04-01T12:47:17;100628;;;13.3;35
79347;BME280;68815;48.810;44.482;2023-04-01T12:50:28;100628;;;13.3;34.7
79347;BME280;68815;48.810;44.482;2023-04-01T12:53:42;100623;;;13.2;35.2
79347;BME280;68815;48.810;44.482;2023-04-01T12:56:53;100623;;;13.1;35.6
79347;BME280;68815;48.810;44.482;2023-04-01T13:00:10;100619;;;13;35.3
79347;BME280;68815;48.810;44.482;2023-04-01T13:03:20;100616;;;12.9;35.3
79347;BME280;68815;48.810;44.482;2023-04-01T13:06:31;100619;;;12.9;35.9
79347;BME280;68815;48.810;44.482;2023-04-01T13:09:45;100617;;;13;36.3
79347;BME280;68815;48.810;44.482;2023-04-01T13:12:57;100612;;;13;36.5
79347;BME280;68815;48.810;44.482;2023-04-01T13:16:03;100616;;;13.1;36.7
79347;BME280;68815;48.810;44.482;2023-04-01T13:19:14;100615;;;13;36.1
79347;BME280;68815;48.810;44.482;2023-04-01T13:22:24;100614;;;13;36.2
79347;BME280;68815;48.810;44.482;2023-04-01T13:25:35;100610;;;13.1;36.2
79347;BME280;68815;48.810;44.482;2023-04-01T13:28:41;100613;;;12.9;35.6
79347;BME280;68815;48.810;44.482;2023-04-01T13:31:52;100616;;;12.9;36
79347;BME280;68815;48.810;44.482;2023-04-01T13:35:05;100616;;;13;35.3
79347;BME280;68815;48.810;44.482;2023-04-01T13:38:25;100612;;;13;34.9
79347;BME280;68815;48.810;44.482;2023-04-01T13:41:40;100614;;;12.8;34
79347;BME280;68815;48.810;44.482;2023-04-01T13:44:53;100613;;;12.8;33.5
79347;BME280;68815;48.810;44.482;2023-04-01T13:51:36;100606;;;12.4;33
79347;BME280;68815;48.810;44.482;2023-04-01T13:54:54;100606;;;12.4;33.8
79347;BME280;68815;48.810;44.482;2023-04-01T13:58:14;100605;;;12.4;33.7
79347;BME280;68815;48.810;44.482;2023-04-01T14:01:30;100608;;;12.4;34.1
79347;BME280;68815;48.810;44.482;2023-04-01T14:04:44;100611;;;12.5;33.8
79347;BME280;68815;48.810;44.482;2023-04-01T14:07:55;100613;;;12.4;34.5
79347;BME280;68815;48.810;44.482;2023-04-01T14:11:10;100616;;;12.3;34.7
79347;BME280;68815;48.810;44.482;2023-04-01T14:14:22;100615;;;12.3;34.9
79347;BME280;68815;48.810;44.482;2023-04-01T14:17:39;100620;;;12.3;34.6
79347;BME280;68815;48.810;44.482;2023-04-01T14:20:51;100621;;;12.2;34.8
79347;BME280;68815;48.810;44.482;2023-04-01T14:24:04;100615;;;12.1;34.7
79347;BME280;68815;48.810;44.482;2023-04-01T14:27:16;100620;;;12.2;34.8
79347;BME280;68815;48.810;44.482;2023-04-01T14:30:31;100627;;;12.1;34.8
79347;BME280;68815;48.810;44.482;2023-04-01T14:33:42;100629;;;12.1;35.2
79347;BME280;68815;48.810;44.482;2023-04-01T14:36:53;100628;;;12.1;35
79347;BME280;68815;48.810;44.482;2023-04-01T14:40:13;100632;;;12.1;34.9
79347;BME280;68815;48.810;44.482;2023-04-01T14:43:30;100640;;;11.9;34.8
79347;BME280;68815;48.810;44.482;2023-04-01T14:50:09;100638;;;11.9;35.3
79347;BME280;68815;48.810;44.482;2023-04-01T14:53:24;100640;;;11.9;35.7
79347;BME280;68815;48.810;44.482;2023-04-01T14:56:36;100650;;;11.7;36.3
79347;BME280;68815;48.810;44.482;2023-04-01T14:59:40;100648;;;11.7;37.2
79347;BME280;68815;48.810;44.482;2023-04-01T15:02:47;100643;;;11.6;36.9
79347;BME280;68815;48.810;44.482;2023-04-01T15:05:56;100646;;;11.5;37.1
79347;BME280;68815;48.810;44.482;2023-04-01T15:09:05;100652;;;11.5;37.7
79347;BME280;68815;48.810;44.482;2023-04-01T15:12:16;100659;;;11.5;37.8
79347;BME280;68815;48.810;44.482;2023-04-01T15:15:28;100660;;;11.3;38.2
79347;BME280;68815;48.810;44.482;2023-04-01T15:18:38;100668;;;11.2;38.5
79347;BME280;68815;48.810;44.482;2023-04-01T15:21:48;100668;;;11.2;38.7
79347;BME280;68815;48.810;44.482;2023-04-01T15:25:05;100675;;;11.1;38.8
79347;BME280;68815;48.810;44.482;2023-04-01T15:28:20;100677;;;11;39.3
79347;BME280;68815;48.810;44.482;2023-04-01T15:31:29;100682;;;11;39.4
79347;BME280;68815;48.810;44.482;2023-04-01T15:34:40;100683;;;11;39.8
79347;BME280;68815;48.810;44.482;2023-04-01T15:37:50;100689;;;10.7;40
79347;BME280;68815;48.810;44.482;2023-04-01T15:41:00;100687;;;10.8;40.1
79347;BME280;68815;48.810;44.482;2023-04-01T15:44:04;100681;;;10.8;40.3
79347;BME280;68815;48.810;44.482;2023-04-01T15:47:32;100689;;;10.6;40.5
79347;BME280;68815;48.810;44.482;2023-04-01T15:50:48;100689;;;10.6;40.7
79347;BME280;68815;48.810;44.482;2023-04-01T15:54:00;100696;;;10.6;41.1
79347;BME280;68815;48.810;44.482;2023-04-01T15:57:13;100691;;;10.5;41.3
79347;BME280;68815;48.810;44.482;2023-04-01T16:00:23;100690;;;10.4;41.6
79347;BME280;68815;48.810;44.482;2023-04-01T16:03:34;100689;;;10.2;42
79347;BME280;68815;48.810;44.482;2023-04-01T16:06:47;100690;;;10.2;42.2
79347;BME280;68815;48.810;44.482;2023-04-01T16:09:56;100693;;;10.1;42.6
79347;BME280;68815;48.810;44.482;2023-04-01T16:13:13;100698;;;10.1;42.8
79347;BME280;68815;48.810;44.482;2023-04-01T16:16:26;100708;;;10;42.9
79347;BME280;68815;48.810;44.482;2023-04-01T16:19:36;100708;;;9.9;43.1
79347;BME280;68815;48.810;44.482;2023-04-01T16:22:45;100703;;;9.9;43.3
79347;BME280;68815;48.810;44.482;2023-04-01T16:25:57;100704;;;9.8;43.4
79347;BME280;68815;48.810;44.482;2023-04-01T16:29:08;100705;;;9.9;43.4
79347;BME280;68815;48.810;44.482;2023-04-01T16:32:18;100708;;;9.8;43.7
79347;BME280;68815;48.810;44.482;2023-04-01T16:35:29;100714;;;9.8;43.4
79347;BME280;68815;48.810;44.482;2023-04-01T16:38:37;100713;;;9.9;43.1
79347;BME280;68815;48.810;44.482;2023-04-01T16:41:47;100710;;;9.8;43.5
79347;BME280;68815;48.810;44.482;2023-04-01T16:44:54;100712;;;9.7;43.8
79347;BME280;68815;48.810;44.482;2023-04-01T16:48:01;100708;;;9.7;43.9
79347;BME280;68815;48.810;44.482;2023-04-01T16:51:13;100703;;;9.6;44.1
79347;BME280;68815;48.810;44.482;2023-04-01T16:54:27;100713;;;9.5;44.3
79347;BME280;68815;48.810;44.482;2023-04-01T16:57:36;100713;;;9.4;45.8
79347;BME280;68815;48.810;44.482;2023-04-01T17:00:48;100713;;;9.4;46.1
79347;BME280;68815;48.810;44.482;2023-04-01T17:03:52;100711;;;9.4;46.2
79347;BME280;68815;48.810;44.482;2023-04-01T17:07:05;100715;;;9.1;46.7
79347;BME280;68815;48.810;44.482;2023-04-01T17:10:22;100720;;;9.1;46.6
79347;BME280;68815;48.810;44.482;2023-04-01T17:13:33;100721;;;9.2;47
79347;BME280;68815;48.810;44.482;2023-04-01T17:16:45;100719;;;9.1;47.1
79347;BME280;68815;48.810;44.482;2023-04-01T17:20:03;100713;;;9;46.8
79347;BME280;68815;48.810;44.482;2023-04-01T17:23:12;100716;;;9.1;47.2
79347;BME280;68815;48.810;44.482;2023-04-01T17:26:20;100721;;;9.1;47
79347;BME280;68815;48.810;44.482;2023-04-01T17:29:30;100713;;;9.1;47
79347;BME280;68815;48.810;44.482;2023-04-01T17:32:41;100716;;;9.1;47
79347;BME280;68815;48.810;44.482;2023-04-01T17:35:52;100715;;;9.2;46.8
79347;BME280;68815;48.810;44.482;2023-04-01T17:39:17;100709;;;9;47.3
79347;BME280;68815;48.810;44.482;2023-04-01T17:42:30;100711;;;9;47.4
79347;BME280;68815;48.810;44.482;2023-04-01T17:45:42;100715;;;9;47.3
79347;BME280;68815;48.810;44.482;2023-04-01T17:48:53;100715;;;9;47.3
79347;BME280;68815;48.810;44.482;2023-04-01T17:52:06;100710;;;8.9;47.6
79347;BME280;68815;48.810;44.482;2023-04-01T17:55:25;100703;;;8.8;48.1
79347;BME280;68815;48.810;44.482;2023-04-01T17:58:35;100705;;;8.8;48.5
79347;BME280;68815;48.810;44.482;2023-04-01T18:01:51;100695;;;8.7;48.6
79347;BME280;68815;48.810;44.482;2023-04-01T18:05:06;100696;;;8.6;48.8